sensor_id;sensor_type;location;lat;lon;timestamp;temperature;humidity
4934;DHT22;2482;49.154;8.254;2023-06-22T00:00:03;20.90;99.90
4934;DHT22;2482;49.154;8.254;2023-06-22T00:02:37;20.80;99.90
4934;DHT22;2482;49.154;8.254;2023-06-22T00:05:04;20.80;99.90
4934;DHT22;2482;49.154;8.254;2023-06-22T00:07:32;20.90;99.90
4934;DHT22;2482;49.154;8.254;2023-06-22T00:09:59;20.90;99.90
4934;DHT22;2482;49.154;8.254;2023-06-22T00:12:26;20.80;99.90
4934;DHT22;2482;49.154;8.254;2023-06-22T00:14:54;20.70;99.90
4934;DHT22;2482;49.154;8.254;2023-06-22T00:17:21;20.60;99.90
4934;DHT22;2482;49.154;8.254;2023-06-22T00:19:48;20.60;99.90
4934;DHT22;2482;49.154;8.254;2023-06-22T00:22:20;20.80;99.90
4934;DHT22;2482;49.154;8.254;2023-06-22T00:24:55;21.10;99.90
4934;DHT22;2482;49.154;8.254;2023-06-22T00:27:23;21.30;99.90
4934;DHT22;2482;49.154;8.254;2023-06-22T00:29:50;21.40;99.90
4934;DHT22;2482;49.154;8.254;2023-06-22T00:32:17;21.60;99.90
4934;DHT22;2482;49.154;8.254;2023-06-22T00:34:45;21.60;99.90
4934;DHT22;2482;49.154;8.254;2023-06-22T00:37:14;21.40;99.90
4934;DHT22;2482;49.154;8.254;2023-06-22T00:39:43;21.40;99.90
4934;DHT22;2482;49.154;8.254;2023-06-22T00:42:10;21.50;99.90
4934;DHT22;2482;49.154;8.254;2023-06-22T00:44:37;21.40;99.90
4934;DHT22;2482;49.154;8.254;2023-06-22T00:47:08;21.00;99.90
4934;DHT22;2482;49.154;8.254;2023-06-22T00:49:35;20.90;99.90
4934;DHT22;2482;49.154;8.254;2023-06-22T00:52:02;20.90;99.90
4934;DHT22;2482;49.154;8.254;2023-06-22T00:54:34;21.00;99.90
4934;DHT22;2482;49.154;8.254;2023-06-22T00:57:02;21.10;99.90
4934;DHT22;2482;49.154;8.254;2023-06-22T00:59:30;21.20;99.90
4934;DHT22;2482;49.154;8.254;2023-06-22T01:02:01;21.30;99.90
4934;DHT22;2482;49.154;8.254;2023-06-22T01:04:35;21.20;99.90
4934;DHT22;2482;49.154;8.254;2023-06-22T01:10:23;20.90;99.90
4934;DHT22;2482;49.154;8.254;2023-06-22T01:13:00;20.60;99.90
4934;DHT22;2482;49.154;8.254;2023-06-22T01:18:22;20.50;99.90
4934;DHT22;2482;49.154;8.254;2023-06-22T01:20:56;20.30;99.90
4934;DHT22;2482;49.154;8.254;2023-06-22T01:23:56;20.30;99.90
4934;DHT22;2482;49.154;8.254;2023-06-22T01:26:57;20.40;99.90
4934;DHT22;2482;49.154;8.254;2023-06-22T01:29:30;20.20;99.90
4934;DHT22;2482;49.154;8.254;2023-06-22T01:32:00;20.00;99.90
4934;DHT22;2482;49.154;8.254;2023-06-22T01:34:31;19.90;99.90
4934;DHT22;2482;49.154;8.254;2023-06-22T01:37:00;20.00;99.90
4934;DHT22;2482;49.154;8.254;2023-06-22T01:39:29;20.10;99.90
4934;DHT22;2482;49.154;8.254;2023-06-22T01:41:57;20.00;99.90
4934;DHT22;2482;49.154;8.254;2023-06-22T01:44:25;20.00;99.90
4934;DHT22;2482;49.154;8.254;2023-06-22T01:46:53;20.10;99.90
4934;DHT22;2482;49.154;8.254;2023-06-22T01:49:20;20.10;99.90
4934;DHT22;2482;49.154;8.254;2023-06-22T01:51:49;20.10;99.90
4934;DHT22;2482;49.154;8.254;2023-06-22T01:54:17;20.00;99.90
4934;DHT22;2482;49.154;8.254;2023-06-22T01:56:49;20.00;99.90
4934;DHT22;2482;49.154;8.254;2023-06-22T01:59:25;20.10;99.90
4934;DHT22;2482;49.154;8.254;2023-06-22T02:02:02;19.90;99.90
4934;DHT22;2482;49.154;8.254;2023-06-22T02:04:42;19.90;99.90
4934;DHT22;2482;49.154;8.254;2023-06-22T02:07:17;19.80;99.90
4934;DHT22;2482;49.154;8.254;2023-06-22T02:09:52;19.70;99.90
4934;DHT22;2482;49.154;8.254;2023-06-22T02:12:24;19.50;99.90
4934;DHT22;2482;49.154;8.254;2023-06-22T02:14:52;19.50;99.90
4934;DHT22;2482;49.154;8.254;2023-06-22T02:17:19;19.40;99.90
4934;DHT22;2482;49.154;8.254;2023-06-22T02:19:47;19.50;99.90
4934;DHT22;2482;49.154;8.254;2023-06-22T02:22:14;19.60;99.90
4934;DHT22;2482;49.154;8.254;2023-06-22T02:24:41;19.50;99.90
4934;DHT22;2482;49.154;8.254;2023-06-22T02:27:08;19.50;99.90
4934;DHT22;2482;49.154;8.254;2023-06-22T02:29:35;19.50;99.90
4934;DHT22;2482;49.154;8.254;2023-06-22T02:32:03;19.60;99.90
4934;DHT22;2482;49.154;8.254;2023-06-22T02:34:31;19.60;99.90
4934;DHT22;2482;49.154;8.254;2023-06-22T02:37:00;19.60;99.90
4934;DHT22;2482;49.154;8.254;2023-06-22T02:39:32;19.50;99.90
4934;DHT22;2482;49.154;8.254;2023-06-22T02:41:59;19.60;99.90
4934;DHT22;2482;49.154;8.254;2023-06-22T02:44:26;19.60;99.90
4934;DHT22;2482;49.154;8.254;2023-06-22T02:46:53;19.70;99.90
4934;DHT22;2482;49.154;8.254;2023-06-22T02:49:21;19.70;99.90
4934;DHT22;2482;49.154;8.254;2023-06-22T02:51:48;19.70;99.90
4934;DHT22;2482;49.154;8.254;2023-06-22T02:54:16;19.70;99.90
4934;DHT22;2482;49.154;8.254;2023-06-22T02:56:43;19.70;99.90
4934;DHT22;2482;49.154;8.254;2023-06-22T02:59:11;19.70;99.90
4934;DHT22;2482;49.154;8.254;2023-06-22T03:01:38;19.70;99.90
4934;DHT22;2482;49.154;8.254;2023-06-22T03:04:07;19.60;99.90
4934;DHT22;2482;49.154;8.254;2023-06-22T03:06:39;19.70;99.90
4934;DHT22;2482;49.154;8.254;2023-06-22T03:09:08;19.60;99.90
4934;DHT22;2482;49.154;8.254;2023-06-22T03:11:38;19.50;99.90
4934;DHT22;2482;49.154;8.254;2023-06-22T03:14:06;19.40;99.90
4934;DHT22;2482;49.154;8.254;2023-06-22T03:16:33;19.50;99.90
4934;DHT22;2482;49.154;8.254;2023-06-22T03:19:00;19.50;99.90
4934;DHT22;2482;49.154;8.254;2023-06-22T03:21:28;19.50;99.90
4934;DHT22;2482;49.154;8.254;2023-06-22T03:23:56;19.30;99.90
4934;DHT22;2482;49.154;8.254;2023-06-22T03:26:23;19.30;99.90
4934;DHT22;2482;49.154;8.254;2023-06-22T03:28:53;19.30;99.90
4934;DHT22;2482;49.154;8.254;2023-06-22T03:31:21;19.30;99.90
4934;DHT22;2482;49.154;8.254;2023-06-22T03:33:49;19.30;99.90
4934;DHT22;2482;49.154;8.254;2023-06-22T03:36:17;19.20;99.90
4934;DHT22;2482;49.154;8.254;2023-06-22T03:38:50;19.20;99.90
4934;DHT22;2482;49.154;8.254;2023-06-22T03:41:17;19.30;99.90
4934;DHT22;2482;49.154;8.254;2023-06-22T03:43:44;19.20;99.90
4934;DHT22;2482;49.154;8.254;2023-06-22T03:46:13;19.40;99.90
4934;DHT22;2482;49.154;8.254;2023-06-22T03:48:41;19.50;99.90
4934;DHT22;2482;49.154;8.254;2023-06-22T03:51:08;19.50;99.90
4934;DHT22;2482;49.154;8.254;2023-06-22T03:53:35;19.70;99.90
4934;DHT22;2482;49.154;8.254;2023-06-22T03:56:02;19.60;99.90
4934;DHT22;2482;49.154;8.254;2023-06-22T03:58:29;19.50;99.90
4934;DHT22;2482;49.154;8.254;2023-06-22T04:00:59;19.50;99.90
4934;DHT22;2482;49.154;8.254;2023-06-22T04:03:26;19.40;99.90
4934;DHT22;2482;49.154;8.254;2023-06-22T04:05:54;19.50;99.90
4934;DHT22;2482;49.154;8.254;2023-06-22T04:08:21;19.60;99.90
4934;DHT22;2482;49.154;8.254;2023-06-22T04:10:48;19.50;99.90
4934;DHT22;2482;49.154;8.254;2023-06-22T04:13:15;19.60;99.90
4934;DHT22;2482;49.154;8.254;2023-06-22T04:15:42;19.50;99.90
4934;DHT22;2482;49.154;8.254;2023-06-22T04:18:09;19.50;99.90
4934;DHT22;2482;49.154;8.254;2023-06-22T04:20:36;19.60;99.90
4934;DHT22;2482;49.154;8.254;2023-06-22T04:23:03;19.60;99.90
4934;DHT22;2482;49.154;8.254;2023-06-22T04:25:32;19.80;99.90
4934;DHT22;2482;49.154;8.254;2023-06-22T04:27:59;19.80;99.90
4934;DHT22;2482;49.154;8.254;2023-06-22T04:30:29;19.90;99.90
4934;DHT22;2482;49.154;8.254;2023-06-22T04:32:58;19.90;99.90
4934;DHT22;2482;49.154;8.254;2023-06-22T04:35:25;20.10;99.90
4934;DHT22;2482;49.154;8.254;2023-06-22T04:37:58;20.20;99.90
4934;DHT22;2482;49.154;8.254;2023-06-22T04:40:25;20.10;99.90
4934;DHT22;2482;49.154;8.254;2023-06-22T04:42:53;20.20;99.90
4934;DHT22;2482;49.154;8.254;2023-06-22T04:45:21;20.20;99.90
4934;DHT22;2482;49.154;8.254;2023-06-22T04:47:48;20.20;99.90
4934;DHT22;2482;49.154;8.254;2023-06-22T04:50:16;20.20;99.90
4934;DHT22;2482;49.154;8.254;2023-06-22T04:52:44;20.50;99.90
4934;DHT22;2482;49.154;8.254;2023-06-22T04:55:12;20.50;99.90
4934;DHT22;2482;49.154;8.254;2023-06-22T04:57:41;20.70;99.90
4934;DHT22;2482;49.154;8.254;2023-06-22T05:00:12;20.80;99.90
4934;DHT22;2482;49.154;8.254;2023-06-22T05:02:45;20.80;99.90
4934;DHT22;2482;49.154;8.254;2023-06-22T05:05:13;20.80;99.90
4934;DHT22;2482;49.154;8.254;2023-06-22T05:07:42;20.90;99.90
4934;DHT22;2482;49.154;8.254;2023-06-22T05:10:11;20.90;99.90
4934;DHT22;2482;49.154;8.254;2023-06-22T05:12:40;20.90;99.90
4934;DHT22;2482;49.154;8.254;2023-06-22T05:15:08;20.90;99.90
4934;DHT22;2482;49.154;8.254;2023-06-22T05:17:36;21.00;99.90
4934;DHT22;2482;49.154;8.254;2023-06-22T05:20:11;21.20;99.90
4934;DHT22;2482;49.154;8.254;2023-06-22T05:22:39;21.30;99.90
4934;DHT22;2482;49.154;8.254;2023-06-22T05:25:10;21.40;99.90
4934;DHT22;2482;49.154;8.254;2023-06-22T05:27:44;21.50;99.90
4934;DHT22;2482;49.154;8.254;2023-06-22T05:30:11;21.60;99.90
4934;DHT22;2482;49.154;8.254;2023-06-22T05:32:38;21.70;99.90
4934;DHT22;2482;49.154;8.254;2023-06-22T05:35:06;21.70;99.90
4934;DHT22;2482;49.154;8.254;2023-06-22T05:37:33;21.80;99.90
4934;DHT22;2482;49.154;8.254;2023-06-22T05:40:00;21.90;99.90
4934;DHT22;2482;49.154;8.254;2023-06-22T05:42:28;21.80;99.90
4934;DHT22;2482;49.154;8.254;2023-06-22T05:44:55;21.90;99.90
4934;DHT22;2482;49.154;8.254;2023-06-22T05:47:22;21.80;99.90
4934;DHT22;2482;49.154;8.254;2023-06-22T05:49:49;21.90;99.90
4934;DHT22;2482;49.154;8.254;2023-06-22T05:52:16;22.00;99.90
4934;DHT22;2482;49.154;8.254;2023-06-22T05:54:45;22.10;99.90
4934;DHT22;2482;49.154;8.254;2023-06-22T05:57:13;22.00;99.90
4934;DHT22;2482;49.154;8.254;2023-06-22T05:59:40;22.00;99.90
4934;DHT22;2482;49.154;8.254;2023-06-22T06:02:07;21.90;99.90
4934;DHT22;2482;49.154;8.254;2023-06-22T06:04:34;21.90;99.90
4934;DHT22;2482;49.154;8.254;2023-06-22T06:07:03;22.00;99.90
4934;DHT22;2482;49.154;8.254;2023-06-22T06:09:30;22.10;99.90
4934;DHT22;2482;49.154;8.254;2023-06-22T06:11:57;22.20;99.90
4934;DHT22;2482;49.154;8.254;2023-06-22T06:14:26;22.30;99.90
4934;DHT22;2482;49.154;8.254;2023-06-22T06:16:53;22.20;99.90
4934;DHT22;2482;49.154;8.254;2023-06-22T06:19:21;22.30;99.90
4934;DHT22;2482;49.154;8.254;2023-06-22T06:21:48;22.60;99.90
4934;DHT22;2482;49.154;8.254;2023-06-22T06:24:16;22.60;99.90
4934;DHT22;2482;49.154;8.254;2023-06-22T06:26:43;22.70;99.90
4934;DHT22;2482;49.154;8.254;2023-06-22T06:29:10;22.80;99.90
4934;DHT22;2482;49.154;8.254;2023-06-22T06:31:47;22.80;99.90
4934;DHT22;2482;49.154;8.254;2023-06-22T06:34:15;22.80;99.90
4934;DHT22;2482;49.154;8.254;2023-06-22T06:36:41;22.90;99.90
4934;DHT22;2482;49.154;8.254;2023-06-22T06:39:09;22.90;99.90
4934;DHT22;2482;49.154;8.254;2023-06-22T06:41:36;23.00;99.90
4934;DHT22;2482;49.154;8.254;2023-06-22T06:44:03;23.10;99.90
4934;DHT22;2482;49.154;8.254;2023-06-22T06:46:30;23.10;99.90
4934;DHT22;2482;49.154;8.254;2023-06-22T06:48:57;23.40;99.90
4934;DHT22;2482;49.154;8.254;2023-06-22T06:51:24;23.50;99.90
4934;DHT22;2482;49.154;8.254;2023-06-22T06:53:53;23.50;99.90
4934;DHT22;2482;49.154;8.254;2023-06-22T06:56:20;23.50;99.90
4934;DHT22;2482;49.154;8.254;2023-06-22T06:58:50;23.30;99.90
4934;DHT22;2482;49.154;8.254;2023-06-22T07:01:17;23.40;99.90
4934;DHT22;2482;49.154;8.254;2023-06-22T07:03:48;23.70;99.90
4934;DHT22;2482;49.154;8.254;2023-06-22T07:06:15;23.80;99.90
4934;DHT22;2482;49.154;8.254;2023-06-22T07:08:43;24.00;99.90
4934;DHT22;2482;49.154;8.254;2023-06-22T07:11:10;24.20;99.90
4934;DHT22;2482;49.154;8.254;2023-06-22T07:13:37;24.20;99.90
4934;DHT22;2482;49.154;8.254;2023-06-22T07:16:04;24.10;99.90
4934;DHT22;2482;49.154;8.254;2023-06-22T07:18:32;24.00;99.90
4934;DHT22;2482;49.154;8.254;2023-06-22T07:20:59;24.20;99.90
4934;DHT22;2482;49.154;8.254;2023-06-22T07:23:26;24.30;99.90
4934;DHT22;2482;49.154;8.254;2023-06-22T07:25:53;24.40;99.90
4934;DHT22;2482;49.154;8.254;2023-06-22T07:28:20;24.60;99.90
4934;DHT22;2482;49.154;8.254;2023-06-22T07:30:47;24.70;99.90
4934;DHT22;2482;49.154;8.254;2023-06-22T07:33:14;24.70;99.90
4934;DHT22;2482;49.154;8.254;2023-06-22T07:35:41;24.50;99.90
4934;DHT22;2482;49.154;8.254;2023-06-22T07:38:08;24.70;99.90
4934;DHT22;2482;49.154;8.254;2023-06-22T07:40:36;24.80;99.90
4934;DHT22;2482;49.154;8.254;2023-06-22T07:43:03;24.70;99.90
4934;DHT22;2482;49.154;8.254;2023-06-22T07:45:30;24.70;99.90
4934;DHT22;2482;49.154;8.254;2023-06-22T07:48:00;24.80;99.90
4934;DHT22;2482;49.154;8.254;2023-06-22T07:50:28;25.00;99.90
4934;DHT22;2482;49.154;8.254;2023-06-22T07:52:56;25.30;99.90
4934;DHT22;2482;49.154;8.254;2023-06-22T07:55:23;25.20;99.90
4934;DHT22;2482;49.154;8.254;2023-06-22T07:57:50;25.10;99.90
4934;DHT22;2482;49.154;8.254;2023-06-22T08:00:18;25.10;99.90
4934;DHT22;2482;49.154;8.254;2023-06-22T08:02:48;25.20;99.90
4934;DHT22;2482;49.154;8.254;2023-06-22T08:05:15;25.50;99.90
4934;DHT22;2482;49.154;8.254;2023-06-22T08:07:49;25.70;99.90
4934;DHT22;2482;49.154;8.254;2023-06-22T08:10:19;25.50;99.90
4934;DHT22;2482;49.154;8.254;2023-06-22T08:12:47;25.70;99.90
4934;DHT22;2482;49.154;8.254;2023-06-22T08:15:15;25.80;99.90
4934;DHT22;2482;49.154;8.254;2023-06-22T08:17:42;25.80;99.90
4934;DHT22;2482;49.154;8.254;2023-06-22T08:20:10;25.90;99.90
4934;DHT22;2482;49.154;8.254;2023-06-22T08:22:43;26.10;99.90
4934;DHT22;2482;49.154;8.254;2023-06-22T08:25:10;26.20;99.90
4934;DHT22;2482;49.154;8.254;2023-06-22T08:27:37;26.30;99.90
4934;DHT22;2482;49.154;8.254;2023-06-22T08:30:06;26.50;99.90
4934;DHT22;2482;49.154;8.254;2023-06-22T08:32:34;26.80;99.90
4934;DHT22;2482;49.154;8.254;2023-06-22T08:35:01;27.00;99.90
4934;DHT22;2482;49.154;8.254;2023-06-22T08:37:29;27.00;99.90
4934;DHT22;2482;49.154;8.254;2023-06-22T08:40:04;27.20;99.90
4934;DHT22;2482;49.154;8.254;2023-06-22T08:42:33;27.20;99.90
4934;DHT22;2482;49.154;8.254;2023-06-22T08:45:00;27.10;99.90
4934;DHT22;2482;49.154;8.254;2023-06-22T08:47:28;27.20;99.90
4934;DHT22;2482;49.154;8.254;2023-06-22T08:49:57;27.10;99.90
4934;DHT22;2482;49.154;8.254;2023-06-22T08:52:24;27.30;99.90
4934;DHT22;2482;49.154;8.254;2023-06-22T08:54:53;27.50;99.90
4934;DHT22;2482;49.154;8.254;2023-06-22T08:57:21;28.00;99.90
4934;DHT22;2482;49.154;8.254;2023-06-22T08:59:48;28.00;99.90
4934;DHT22;2482;49.154;8.254;2023-06-22T09:02:15;28.00;99.90
4934;DHT22;2482;49.154;8.254;2023-06-22T09:04:43;27.90;99.90
4934;DHT22;2482;49.154;8.254;2023-06-22T09:07:10;28.10;99.90
4934;DHT22;2482;49.154;8.254;2023-06-22T09:09:38;28.20;99.90
4934;DHT22;2482;49.154;8.254;2023-06-22T09:12:05;28.50;99.90
4934;DHT22;2482;49.154;8.254;2023-06-22T09:14:33;28.80;99.90
4934;DHT22;2482;49.154;8.254;2023-06-22T09:17:00;28.90;99.90
4934;DHT22;2482;49.154;8.254;2023-06-22T09:19:27;29.00;99.90
4934;DHT22;2482;49.154;8.254;2023-06-22T09:21:54;29.00;99.90
4934;DHT22;2482;49.154;8.254;2023-06-22T09:24:21;29.00;99.90
4934;DHT22;2482;49.154;8.254;2023-06-22T09:26:48;28.70;99.90
4934;DHT22;2482;49.154;8.254;2023-06-22T09:29:16;28.60;99.90
4934;DHT22;2482;49.154;8.254;2023-06-22T09:31:43;28.70;99.90
4934;DHT22;2482;49.154;8.254;2023-06-22T09:34:11;29.30;99.90
4934;DHT22;2482;49.154;8.254;2023-06-22T09:36:45;29.80;99.90
4934;DHT22;2482;49.154;8.254;2023-06-22T09:39:12;29.70;99.90
4934;DHT22;2482;49.154;8.254;2023-06-22T09:41:39;29.20;99.90
4934;DHT22;2482;49.154;8.254;2023-06-22T09:44:06;29.90;99.90
4934;DHT22;2482;49.154;8.254;2023-06-22T09:46:41;30.40;99.90
4934;DHT22;2482;49.154;8.254;2023-06-22T09:49:08;30.30;99.90
4934;DHT22;2482;49.154;8.254;2023-06-22T09:51:35;29.70;99.90
4934;DHT22;2482;49.154;8.254;2023-06-22T09:54:02;28.80;99.90
4934;DHT22;2482;49.154;8.254;2023-06-22T09:56:36;28.60;99.90
4934;DHT22;2482;49.154;8.254;2023-06-22T09:59:04;28.80;99.90
4934;DHT22;2482;49.154;8.254;2023-06-22T10:01:44;29.40;99.90
4934;DHT22;2482;49.154;8.254;2023-06-22T10:04:11;29.80;99.90
4934;DHT22;2482;49.154;8.254;2023-06-22T10:06:38;29.80;99.90
4934;DHT22;2482;49.154;8.254;2023-06-22T10:09:08;30.00;99.90
4934;DHT22;2482;49.154;8.254;2023-06-22T10:11:36;29.60;99.90
4934;DHT22;2482;49.154;8.254;2023-06-22T10:14:03;29.50;99.90
4934;DHT22;2482;49.154;8.254;2023-06-22T10:16:31;29.10;99.90
4934;DHT22;2482;49.154;8.254;2023-06-22T10:18:59;29.40;99.90
4934;DHT22;2482;49.154;8.254;2023-06-22T10:21:26;29.40;99.90
4934;DHT22;2482;49.154;8.254;2023-06-22T10:23:55;30.00;99.90
4934;DHT22;2482;49.154;8.254;2023-06-22T10:26:25;30.20;99.90
4934;DHT22;2482;49.154;8.254;2023-06-22T10:28:55;30.00;99.90
4934;DHT22;2482;49.154;8.254;2023-06-22T10:31:47;30.30;99.90
4934;DHT22;2482;49.154;8.254;2023-06-22T10:34:14;30.60;99.90
4934;DHT22;2482;49.154;8.254;2023-06-22T10:36:41;30.90;99.90
4934;DHT22;2482;49.154;8.254;2023-06-22T10:39:09;30.80;99.90
4934;DHT22;2482;49.154;8.254;2023-06-22T10:41:36;30.90;99.90
4934;DHT22;2482;49.154;8.254;2023-06-22T10:44:03;30.80;99.90
4934;DHT22;2482;49.154;8.254;2023-06-22T10:46:30;31.00;99.90
4934;DHT22;2482;49.154;8.254;2023-06-22T10:48:58;31.30;99.90
4934;DHT22;2482;49.154;8.254;2023-06-22T10:51:28;31.20;99.90
4934;DHT22;2482;49.154;8.254;2023-06-22T10:54:00;31.20;99.90
4934;DHT22;2482;49.154;8.254;2023-06-22T10:56:27;31.00;99.90
4934;DHT22;2482;49.154;8.254;2023-06-22T10:58:54;30.50;99.90
4934;DHT22;2482;49.154;8.254;2023-06-22T11:01:21;30.60;99.90
4934;DHT22;2482;49.154;8.254;2023-06-22T11:04:01;30.90;99.90
4934;DHT22;2482;49.154;8.254;2023-06-22T11:06:29;30.60;99.90
4934;DHT22;2482;49.154;8.254;2023-06-22T11:08:57;29.90;99.90
4934;DHT22;2482;49.154;8.254;2023-06-22T11:11:41;30.20;99.90
4934;DHT22;2482;49.154;8.254;2023-06-22T11:14:08;30.80;99.90
4934;DHT22;2482;49.154;8.254;2023-06-22T11:16:34;31.10;99.90
4934;DHT22;2482;49.154;8.254;2023-06-22T11:19:05;31.40;99.90
4934;DHT22;2482;49.154;8.254;2023-06-22T11:21:32;31.30;99.90
4934;DHT22;2482;49.154;8.254;2023-06-22T11:24:01;31.10;99.90
4934;DHT22;2482;49.154;8.254;2023-06-22T11:26:29;30.90;99.90
4934;DHT22;2482;49.154;8.254;2023-06-22T11:28:56;31.10;99.90
4934;DHT22;2482;49.154;8.254;2023-06-22T11:31:25;31.20;99.90
4934;DHT22;2482;49.154;8.254;2023-06-22T11:33:53;31.60;99.90
4934;DHT22;2482;49.154;8.254;2023-06-22T11:36:20;31.50;99.90
4934;DHT22;2482;49.154;8.254;2023-06-22T11:38:54;31.60;99.90
4934;DHT22;2482;49.154;8.254;2023-06-22T11:41:21;31.60;99.90
4934;DHT22;2482;49.154;8.254;2023-06-22T11:43:48;31.70;99.90
4934;DHT22;2482;49.154;8.254;2023-06-22T11:46:15;32.30;99.90
4934;DHT22;2482;49.154;8.254;2023-06-22T11:48:42;32.60;99.90
4934;DHT22;2482;49.154;8.254;2023-06-22T11:51:09;33.00;99.90
4934;DHT22;2482;49.154;8.254;2023-06-22T11:53:45;33.20;99.90
4934;DHT22;2482;49.154;8.254;2023-06-22T11:56:19;33.20;99.90
4934;DHT22;2482;49.154;8.254;2023-06-22T11:58:46;33.20;99.90
4934;DHT22;2482;49.154;8.254;2023-06-22T12:01:29;32.90;99.90
4934;DHT22;2482;49.154;8.254;2023-06-22T12:03:56;33.30;99.90
4934;DHT22;2482;49.154;8.254;2023-06-22T12:06:38;33.60;99.90
4934;DHT22;2482;49.154;8.254;2023-06-22T12:09:13;33.30;99.90
4934;DHT22;2482;49.154;8.254;2023-06-22T12:11:43;33.20;99.90
4934;DHT22;2482;49.154;8.254;2023-06-22T12:14:17;33.50;99.90
4934;DHT22;2482;49.154;8.254;2023-06-22T12:16:44;34.00;99.90
4934;DHT22;2482;49.154;8.254;2023-06-22T12:19:12;33.80;99.90
4934;DHT22;2482;49.154;8.254;2023-06-22T12:21:39;34.20;99.90
4934;DHT22;2482;49.154;8.254;2023-06-22T12:24:07;34.30;99.90
4934;DHT22;2482;49.154;8.254;2023-06-22T12:26:34;34.40;99.90
4934;DHT22;2482;49.154;8.254;2023-06-22T12:29:01;34.40;99.90
4934;DHT22;2482;49.154;8.254;2023-06-22T12:31:28;33.90;99.90
4934;DHT22;2482;49.154;8.254;2023-06-22T12:33:55;33.70;99.90
4934;DHT22;2482;49.154;8.254;2023-06-22T12:36:22;33.50;99.90
4934;DHT22;2482;49.154;8.254;2023-06-22T12:38:52;33.50;99.90
4934;DHT22;2482;49.154;8.254;2023-06-22T12:41:23;33.20;99.90
4934;DHT22;2482;49.154;8.254;2023-06-22T12:43:50;33.00;99.90
4934;DHT22;2482;49.154;8.254;2023-06-22T12:46:17;32.60;99.90
4934;DHT22;2482;49.154;8.254;2023-06-22T12:48:44;32.80;99.90
4934;DHT22;2482;49.154;8.254;2023-06-22T12:51:11;32.50;99.90
4934;DHT22;2482;49.154;8.254;2023-06-22T12:53:38;32.60;99.90
4934;DHT22;2482;49.154;8.254;2023-06-22T12:56:05;32.30;99.90
4934;DHT22;2482;49.154;8.254;2023-06-22T12:58:32;32.40;99.90
4934;DHT22;2482;49.154;8.254;2023-06-22T13:00:59;32.30;99.90
4934;DHT22;2482;49.154;8.254;2023-06-22T13:03:26;32.10;99.90
4934;DHT22;2482;49.154;8.254;2023-06-22T13:05:54;32.00;99.90
4934;DHT22;2482;49.154;8.254;2023-06-22T13:08:21;31.80;99.90
4934;DHT22;2482;49.154;8.254;2023-06-22T13:11:07;31.90;99.90
4934;DHT22;2482;49.154;8.254;2023-06-22T13:13:34;32.20;99.90
4934;DHT22;2482;49.154;8.254;2023-06-22T13:16:01;32.30;99.90
4934;DHT22;2482;49.154;8.254;2023-06-22T13:18:28;32.40;99.90
4934;DHT22;2482;49.154;8.254;2023-06-22T13:20:55;32.20;99.90
4934;DHT22;2482;49.154;8.254;2023-06-22T13:23:22;32.50;99.90
4934;DHT22;2482;49.154;8.254;2023-06-22T13:25:50;32.80;99.90
4934;DHT22;2482;49.154;8.254;2023-06-22T13:28:26;33.30;99.90
4934;DHT22;2482;49.154;8.254;2023-06-22T13:30:54;33.40;99.90
4934;DHT22;2482;49.154;8.254;2023-06-22T13:33:21;33.30;99.90
4934;DHT22;2482;49.154;8.254;2023-06-22T13:35:50;33.00;99.90
4934;DHT22;2482;49.154;8.254;2023-06-22T13:38:17;32.70;99.90
4934;DHT22;2482;49.154;8.254;2023-06-22T13:40:45;32.40;99.90
4934;DHT22;2482;49.154;8.254;2023-06-22T13:43:12;32.10;99.90
4934;DHT22;2482;49.154;8.254;2023-06-22T13:45:40;31.80;99.90
4934;DHT22;2482;49.154;8.254;2023-06-22T13:48:10;31.40;99.90
4934;DHT22;2482;49.154;8.254;2023-06-22T13:50:37;31.10;99.90
4934;DHT22;2482;49.154;8.254;2023-06-22T13:53:04;31.10;99.90
4934;DHT22;2482;49.154;8.254;2023-06-22T13:55:32;30.90;99.90
4934;DHT22;2482;49.154;8.254;2023-06-22T13:58:01;30.60;99.90
4934;DHT22;2482;49.154;8.254;2023-06-22T14:00:28;30.30;99.90
4934;DHT22;2482;49.154;8.254;2023-06-22T14:02:56;30.20;99.90
4934;DHT22;2482;49.154;8.254;2023-06-22T14:05:42;30.10;99.90
4934;DHT22;2482;49.154;8.254;2023-06-22T14:08:12;30.20;99.90
4934;DHT22;2482;49.154;8.254;2023-06-22T14:11:03;30.40;99.90
4934;DHT22;2482;49.154;8.254;2023-06-22T14:13:31;30.50;99.90
4934;DHT22;2482;49.154;8.254;2023-06-22T14:15:58;30.40;99.90
4934;DHT22;2482;49.154;8.254;2023-06-22T14:18:25;30.30;99.90
4934;DHT22;2482;49.154;8.254;2023-06-22T14:20:52;30.10;99.90
4934;DHT22;2482;49.154;8.254;2023-06-22T14:23:19;29.90;99.90
4934;DHT22;2482;49.154;8.254;2023-06-22T14:25:46;29.70;99.90
4934;DHT22;2482;49.154;8.254;2023-06-22T14:28:13;29.50;99.90
4934;DHT22;2482;49.154;8.254;2023-06-22T14:30:40;29.00;99.90
4934;DHT22;2482;49.154;8.254;2023-06-22T14:33:07;28.70;99.90
4934;DHT22;2482;49.154;8.254;2023-06-22T14:35:34;28.40;99.90
4934;DHT22;2482;49.154;8.254;2023-06-22T14:38:01;28.40;99.90
4934;DHT22;2482;49.154;8.254;2023-06-22T14:40:28;28.20;99.90
4934;DHT22;2482;49.154;8.254;2023-06-22T14:43:01;28.20;99.90
4934;DHT22;2482;49.154;8.254;2023-06-22T14:45:31;28.60;99.90
4934;DHT22;2482;49.154;8.254;2023-06-22T14:47:58;28.80;99.90
4934;DHT22;2482;49.154;8.254;2023-06-22T14:50:25;29.20;99.90
4934;DHT22;2482;49.154;8.254;2023-06-22T14:52:53;29.20;99.90
4934;DHT22;2482;49.154;8.254;2023-06-22T14:55:23;29.30;99.90
4934;DHT22;2482;49.154;8.254;2023-06-22T14:57:51;29.60;99.90
4934;DHT22;2482;49.154;8.254;2023-06-22T15:00:20;30.10;99.90
4934;DHT22;2482;49.154;8.254;2023-06-22T15:02:47;30.00;99.90
4934;DHT22;2482;49.154;8.254;2023-06-22T15:05:17;30.10;99.90
4934;DHT22;2482;49.154;8.254;2023-06-22T15:07:45;29.90;99.90
4934;DHT22;2482;49.154;8.254;2023-06-22T15:10:12;30.10;99.90
4934;DHT22;2482;49.154;8.254;2023-06-22T15:12:40;30.30;99.90
4934;DHT22;2482;49.154;8.254;2023-06-22T15:15:07;30.20;99.90
4934;DHT22;2482;49.154;8.254;2023-06-22T15:17:34;30.40;99.90
4934;DHT22;2482;49.154;8.254;2023-06-22T15:20:10;30.20;99.90
4934;DHT22;2482;49.154;8.254;2023-06-22T15:22:37;29.90;99.90
4934;DHT22;2482;49.154;8.254;2023-06-22T15:25:05;29.90;99.90
4934;DHT22;2482;49.154;8.254;2023-06-22T15:27:32;29.70;99.90
4934;DHT22;2482;49.154;8.254;2023-06-22T15:30:02;29.80;99.90
4934;DHT22;2482;49.154;8.254;2023-06-22T15:32:30;30.10;99.90
4934;DHT22;2482;49.154;8.254;2023-06-22T15:34:57;29.90;99.90
4934;DHT22;2482;49.154;8.254;2023-06-22T15:37:24;29.80;99.90
4934;DHT22;2482;49.154;8.254;2023-06-22T15:39:52;29.80;99.90
4934;DHT22;2482;49.154;8.254;2023-06-22T15:42:19;29.80;99.90
4934;DHT22;2482;49.154;8.254;2023-06-22T15:44:46;29.90;99.90
4934;DHT22;2482;49.154;8.254;2023-06-22T15:47:14;30.00;99.90
4934;DHT22;2482;49.154;8.254;2023-06-22T15:49:41;30.10;99.90
4934;DHT22;2482;49.154;8.254;2023-06-22T15:52:09;30.20;99.90
4934;DHT22;2482;49.154;8.254;2023-06-22T15:54:36;30.30;99.90
4934;DHT22;2482;49.154;8.254;2023-06-22T15:57:03;30.30;99.90
4934;DHT22;2482;49.154;8.254;2023-06-22T15:59:30;30.30;99.90
4934;DHT22;2482;49.154;8.254;2023-06-22T16:01:57;30.40;99.90
4934;DHT22;2482;49.154;8.254;2023-06-22T16:04:24;30.50;99.90
4934;DHT22;2482;49.154;8.254;2023-06-22T16:06:51;30.50;99.90
4934;DHT22;2482;49.154;8.254;2023-06-22T16:09:18;30.40;99.90
4934;DHT22;2482;49.154;8.254;2023-06-22T16:11:46;30.40;99.90
4934;DHT22;2482;49.154;8.254;2023-06-22T16:14:13;30.40;99.90
4934;DHT22;2482;49.154;8.254;2023-06-22T16:16:40;30.50;99.90